Airfield :







YOU CAN JOIN US ON...

 
LOGIN :

Register | Disclaimer

   EN    FR    IT 

 









Legend :    VFR   Marginal VFR   IFR   Intensive IFR   Very Intensive IFR
Visi :
Ceiling :
>= 8 km
>= 3000ft
5 to 8 km
1000 to 3000 ft
1500m to 5 km
500 to 1000 ft
800 to 1500m
200 to 500 ft
< 800m
< 200 ft
Symbols :   Thunderstorms  Fog  Heavy snow  Heavy precipitations  Wind > 20 kt







- Airport Elevation : 496 ft
- IATA code : YQX


CYQX - Gander

CURRENT METAR :
  • 160222Z 22009G15KT 15SM SCT007 SCT030 BKN092 13/12 A2981 RMK SF3SC1AC3 SLP100 DENSITY ALT 500FT

EXPIRED METARs :
  • 160200Z 23012KT 15SM BKN007 BKN030 BKN090 13/12 A2982 RMK SF5SC1AC1 SLP103 DENSITY ALT 600FT
  • 160141Z 22008KT 15SM BKN008 BKN030 BKN088 13/12 A2984 RMK SF5SC1AC1 SLP107 DENSITY ALT 500FT
  • 160100Z 22011KT 20SM FEW007 FEW030 SCT063 BKN088 14/12 A2984 RMK SF1SC1SC1AC4 SLP107 DENSITY ALT 600FT
  • 160000Z 20010G19KT 20SM FEW007 FEW030 SCT063 BKN082 14/12 A2985 RMK SF1SC1SC1AC4 SLP112 DENSITY ALT 600FT

TAF AMD TAF CYQX
Valid from the 16 at 01:00 until the 17 at 00:00 UTC


160144Z 1601/1624 22007KT P6SM SCT008 BKN030
TEMPO 1601/1606 BKN008
FM160600 22008KT 6SM BR OVC008
FM161000 24008KT P6SM BKN012
BECMG 1610/1612 28008KT
FM161400 30005KT P6SM BKN025
FM161800 34008KT P6SM -SHRA FEW004 SCT020 BKN040 RMK NXT FCST BY 160600Z
No reported NOTAMs for that airfield.



MET'MAP, your aeronautical weather chart ! - Copyright ORBIFLY December 2007 - Disclaimer

ORBIFLY MET'MAP TEAM :

Programming & Development : Alexandra Zaïnal
Concept & Development : Baudouin d'Aumeries
Co-Development & Prog : Marc-Olivier Méhu
Technical & hardware support : Manuel Goepfert

Contact : metmap@orbifly.com




SOURCES & CREDITS :

   NOAA